Huvudsida
METAR-TAF:

METAR-TAF

Flygplatser :

Riyadh, Saudiarabien

latitud: 24-43N, longitud: 046-44E, höjd: 635 m

METAR: saknas

Tid: 02:04 (23:04 UTC)

Väderprognos

Denna rapport gjordes för 12 timmar och 4 minuter sedan, klockan 11:00 UTC
Prognos gäller från 15 kl. 12 UTC till 16 kl. 18 UTC
Vind 14 kt från syd/sydost
Sikt: 7000 m
Få moln på en höjd av 4000 ft
Spridda moln på en höjd av 10000 ft
Blir
från 15 kl. 18 UTC till 15 kl. 20 UTC
Vind 3 kt varierande vindriktning

TAF: OERY 151100Z 1512/1618 16014KT 7000 FEW040 SCT100 BECMG 1518/1520 VRB03KT

Aktuella väderrapporter och prognoser från 4000 flygplatser (METAR- och TAF-rapporter).

De tillgängliga stationerna syns som gula och röda prickar på kartan.

För musen över prickarna för att se namnen på stationerna.

Klicka sedan för att få väderrapporter och prognoser.

För att ändra kartan: Klicka på de gröna knapparna med ett svart kors på för att zooma in; den gröna knappen med ett streck på för att zooma ut; eller på de gröna pilarna för angränsande kartor.


METAR-TAF: